sensor_id;sensor_type;location;lat;lon;timestamp;P1;durP1;ratioP1;P2;durP2;ratioP2
34497;SDS011;20744;50.938;7.286;2022-12-29T00:01:48;0.68;;;0.40;;
34497;SDS011;20744;50.938;7.286;2022-12-29T00:04:15;0.50;;;0.30;;
34497;SDS011;20744;50.938;7.286;2022-12-29T00:06:42;1.05;;;0.30;;
34497;SDS011;20744;50.938;7.286;2022-12-29T00:09:10;1.58;;;0.50;;
34497;SDS011;20744;50.938;7.286;2022-12-29T00:11:39;0.40;;;0.30;;
34497;SDS011;20744;50.938;7.286;2022-12-29T00:14:06;1.00;;;0.40;;
34497;SDS011;20744;50.938;7.286;2022-12-29T00:16:52;1.75;;;0.30;;
34497;SDS011;20744;50.938;7.286;2022-12-29T00:19:19;1.15;;;0.40;;
34497;SDS011;20744;50.938;7.286;2022-12-29T00:22:03;0.52;;;0.40;;
34497;SDS011;20744;50.938;7.286;2022-12-29T00:24:47;0.50;;;0.40;;
34497;SDS011;20744;50.938;7.286;2022-12-29T00:27:33;0.93;;;0.40;;
34497;SDS011;20744;50.938;7.286;2022-12-29T00:30:19;0.50;;;0.30;;
34497;SDS011;20744;50.938;7.286;2022-12-29T00:33:08;3.80;;;0.75;;
34497;SDS011;20744;50.938;7.286;2022-12-29T00:35:54;1.60;;;0.43;;
34497;SDS011;20744;50.938;7.286;2022-12-29T00:38:24;3.03;;;0.40;;
34497;SDS011;20744;50.938;7.286;2022-12-29T00:41:23;2.15;;;0.60;;
34497;SDS011;20744;50.938;7.286;2022-12-29T00:44:09;1.50;;;0.40;;
34497;SDS011;20744;50.938;7.286;2022-12-29T00:46:40;0.80;;;0.30;;
34497;SDS011;20744;50.938;7.286;2022-12-29T00:49:08;0.75;;;0.30;;
34497;SDS011;20744;50.938;7.286;2022-12-29T00:51:54;0.52;;;0.25;;
34497;SDS011;20744;50.938;7.286;2022-12-29T00:54:22;0.30;;;0.20;;
34497;SDS011;20744;50.938;7.286;2022-12-29T00:56:50;2.47;;;0.30;;
34497;SDS011;20744;50.938;7.286;2022-12-29T00:59:19;3.04;;;0.24;;
34497;SDS011;20744;50.938;7.286;2022-12-29T01:01:49;0.40;;;0.20;;
34497;SDS011;20744;50.938;7.286;2022-12-29T01:04:16;0.98;;;0.40;;
34497;SDS011;20744;50.938;7.286;2022-12-29T01:06:43;0.17;;;0.17;;
34497;SDS011;20744;50.938;7.286;2022-12-29T01:09:11;2.55;;;0.40;;
34497;SDS011;20744;50.938;7.286;2022-12-29T01:11:55;0.68;;;0.20;;
34497;SDS011;20744;50.938;7.286;2022-12-29T01:14:24;0.30;;;0.10;;
34497;SDS011;20744;50.938;7.286;2022-12-29T01:16:51;1.10;;;0.30;;
34497;SDS011;20744;50.938;7.286;2022-12-29T01:19:18;0.52;;;0.20;;
34497;SDS011;20744;50.938;7.286;2022-12-29T01:21:46;0.30;;;0.30;;
34497;SDS011;20744;50.938;7.286;2022-12-29T01:24:13;1.27;;;0.20;;
34497;SDS011;20744;50.938;7.286;2022-12-29T01:26:41;0.20;;;0.20;;
34497;SDS011;20744;50.938;7.286;2022-12-29T01:29:08;0.38;;;0.22;;
34497;SDS011;20744;50.938;7.286;2022-12-29T01:31:37;0.28;;;0.17;;
34497;SDS011;20744;50.938;7.286;2022-12-29T01:34:04;2.97;;;0.40;;
34497;SDS011;20744;50.938;7.286;2022-12-29T01:36:32;0.32;;;0.20;;
34497;SDS011;20744;50.938;7.286;2022-12-29T01:38:59;0.82;;;0.40;;
34497;SDS011;20744;50.938;7.286;2022-12-29T01:41:26;0.75;;;0.20;;
34497;SDS011;20744;50.938;7.286;2022-12-29T01:43:53;0.98;;;0.20;;
34497;SDS011;20744;50.938;7.286;2022-12-29T01:46:25;0.60;;;0.30;;
34497;SDS011;20744;50.938;7.286;2022-12-29T01:48:57;1.20;;;0.30;;
34497;SDS011;20744;50.938;7.286;2022-12-29T01:51:26;0.82;;;0.30;;
34497;SDS011;20744;50.938;7.286;2022-12-29T01:53:56;0.63;;;0.30;;
34497;SDS011;20744;50.938;7.286;2022-12-29T01:56:26;0.45;;;0.30;;
34497;SDS011;20744;50.938;7.286;2022-12-29T01:58:54;1.10;;;0.30;;
34497;SDS011;20744;50.938;7.286;2022-12-29T02:01:24;0.52;;;0.20;;
34497;SDS011;20744;50.938;7.286;2022-12-29T02:03:51;0.25;;;0.10;;
34497;SDS011;20744;50.938;7.286;2022-12-29T02:06:21;0.30;;;0.20;;
34497;SDS011;20744;50.938;7.286;2022-12-29T02:08:51;1.10;;;0.20;;
34497;SDS011;20744;50.938;7.286;2022-12-29T02:11:19;0.45;;;0.20;;
34497;SDS011;20744;50.938;7.286;2022-12-29T02:13:48;0.60;;;0.20;;
34497;SDS011;20744;50.938;7.286;2022-12-29T02:16:19;1.17;;;0.20;;
34497;SDS011;20744;50.938;7.286;2022-12-29T02:18:58;1.20;;;0.30;;
34497;SDS011;20744;50.938;7.286;2022-12-29T02:21:47;0.93;;;0.20;;
34497;SDS011;20744;50.938;7.286;2022-12-29T02:27:51;1.33;;;0.45;;
34497;SDS011;20744;50.938;7.286;2022-12-29T02:30:32;0.80;;;0.40;;
34497;SDS011;20744;50.938;7.286;2022-12-29T02:33:05;0.43;;;0.30;;
34497;SDS011;20744;50.938;7.286;2022-12-29T02:35:37;1.23;;;0.30;;
34497;SDS011;20744;50.938;7.286;2022-12-29T02:38:18;1.13;;;0.30;;
34497;SDS011;20744;50.938;7.286;2022-12-29T02:40:51;2.35;;;0.35;;
34497;SDS011;20744;50.938;7.286;2022-12-29T02:43:23;1.63;;;0.30;;
34497;SDS011;20744;50.938;7.286;2022-12-29T02:46:00;2.58;;;0.60;;
34497;SDS011;20744;50.938;7.286;2022-12-29T02:48:36;0.98;;;0.50;;
34497;SDS011;20744;50.938;7.286;2022-12-29T02:51:08;0.28;;;0.20;;
34497;SDS011;20744;50.938;7.286;2022-12-29T02:53:42;1.50;;;0.40;;
34497;SDS011;20744;50.938;7.286;2022-12-29T02:58:54;0.93;;;0.30;;
34497;SDS011;20744;50.938;7.286;2022-12-29T03:01:25;1.70;;;0.40;;
34497;SDS011;20744;50.938;7.286;2022-12-29T03:04:09;0.55;;;0.30;;
34497;SDS011;20744;50.938;7.286;2022-12-29T03:06:51;1.95;;;0.47;;
34497;SDS011;20744;50.938;7.286;2022-12-29T03:09:26;0.93;;;0.30;;
34497;SDS011;20744;50.938;7.286;2022-12-29T03:12:04;1.95;;;0.40;;
34497;SDS011;20744;50.938;7.286;2022-12-29T03:14:48;2.47;;;0.70;;
34497;SDS011;20744;50.938;7.286;2022-12-29T03:17:45;3.05;;;0.40;;
34497;SDS011;20744;50.938;7.286;2022-12-29T03:20:18;2.05;;;0.30;;
34497;SDS011;20744;50.938;7.286;2022-12-29T03:22:48;1.73;;;0.45;;
34497;SDS011;20744;50.938;7.286;2022-12-29T03:25:18;3.53;;;0.30;;
34497;SDS011;20744;50.938;7.286;2022-12-29T03:27:51;1.30;;;0.50;;
34497;SDS011;20744;50.938;7.286;2022-12-29T03:30:21;2.30;;;0.30;;
34497;SDS011;20744;50.938;7.286;2022-12-29T03:32:52;1.50;;;0.50;;
34497;SDS011;20744;50.938;7.286;2022-12-29T03:35:22;0.85;;;0.43;;
34497;SDS011;20744;50.938;7.286;2022-12-29T03:37:55;0.90;;;0.30;;
34497;SDS011;20744;50.938;7.286;2022-12-29T03:40:26;1.08;;;0.35;;
34497;SDS011;20744;50.938;7.286;2022-12-29T03:42:55;1.42;;;0.40;;
34497;SDS011;20744;50.938;7.286;2022-12-29T03:45:23;1.75;;;0.30;;
34497;SDS011;20744;50.938;7.286;2022-12-29T03:47:51;1.65;;;0.40;;
34497;SDS011;20744;50.938;7.286;2022-12-29T03:50:19;0.45;;;0.30;;
34497;SDS011;20744;50.938;7.286;2022-12-29T03:52:46;2.05;;;0.50;;
34497;SDS011;20744;50.938;7.286;2022-12-29T03:55:13;1.08;;;0.40;;
34497;SDS011;20744;50.938;7.286;2022-12-29T03:57:40;1.35;;;0.32;;
34497;SDS011;20744;50.938;7.286;2022-12-29T04:00:07;2.35;;;0.40;;
34497;SDS011;20744;50.938;7.286;2022-12-29T04:02:35;2.92;;;0.40;;
34497;SDS011;20744;50.938;7.286;2022-12-29T04:05:04;1.20;;;0.40;;
34497;SDS011;20744;50.938;7.286;2022-12-29T04:07:32;2.00;;;0.50;;
34497;SDS011;20744;50.938;7.286;2022-12-29T04:09:59;0.60;;;0.30;;
34497;SDS011;20744;50.938;7.286;2022-12-29T04:12:26;2.58;;;0.30;;
34497;SDS011;20744;50.938;7.286;2022-12-29T04:14:53;1.17;;;0.32;;
34497;SDS011;20744;50.938;7.286;2022-12-29T04:17:20;1.88;;;0.40;;
34497;SDS011;20744;50.938;7.286;2022-12-29T04:19:46;1.02;;;0.40;;
34497;SDS011;20744;50.938;7.286;2022-12-29T04:22:15;1.75;;;0.47;;
34497;SDS011;20744;50.938;7.286;2022-12-29T04:24:40;0.60;;;0.45;;
34497;SDS011;20744;50.938;7.286;2022-12-29T04:27:07;0.45;;;0.35;;
34497;SDS011;20744;50.938;7.286;2022-12-29T04:29:34;0.50;;;0.40;;
34497;SDS011;20744;50.938;7.286;2022-12-29T04:32:01;2.15;;;0.57;;
34497;SDS011;20744;50.938;7.286;2022-12-29T04:34:28;1.05;;;0.40;;
34497;SDS011;20744;50.938;7.286;2022-12-29T04:36:55;0.90;;;0.30;;
34497;SDS011;20744;50.938;7.286;2022-12-29T04:39:23;0.40;;;0.20;;
34497;SDS011;20744;50.938;7.286;2022-12-29T04:41:50;1.02;;;0.30;;
34497;SDS011;20744;50.938;7.286;2022-12-29T04:44:17;1.08;;;0.15;;
34497;SDS011;20744;50.938;7.286;2022-12-29T04:46:44;4.50;;;0.45;;
34497;SDS011;20744;50.938;7.286;2022-12-29T04:49:10;1.00;;;0.25;;
34497;SDS011;20744;50.938;7.286;2022-12-29T04:51:37;3.45;;;0.50;;
34497;SDS011;20744;50.938;7.286;2022-12-29T04:54:04;1.17;;;0.55;;
34497;SDS011;20744;50.938;7.286;2022-12-29T04:56:32;2.22;;;0.50;;
34497;SDS011;20744;50.938;7.286;2022-12-29T04:58:59;0.77;;;0.40;;
34497;SDS011;20744;50.938;7.286;2022-12-29T05:01:26;0.43;;;0.28;;
34497;SDS011;20744;50.938;7.286;2022-12-29T05:03:53;0.47;;;0.30;;
34497;SDS011;20744;50.938;7.286;2022-12-29T05:06:20;0.55;;;0.32;;
34497;SDS011;20744;50.938;7.286;2022-12-29T05:08:47;0.93;;;0.30;;
34497;SDS011;20744;50.938;7.286;2022-12-29T05:11:14;0.73;;;0.32;;
34497;SDS011;20744;50.938;7.286;2022-12-29T05:13:44;3.00;;;0.50;;
34497;SDS011;20744;50.938;7.286;2022-12-29T05:16:11;0.43;;;0.32;;
34497;SDS011;20744;50.938;7.286;2022-12-29T05:18:38;0.55;;;0.30;;
34497;SDS011;20744;50.938;7.286;2022-12-29T05:21:05;1.88;;;0.50;;
34497;SDS011;20744;50.938;7.286;2022-12-29T05:23:32;0.63;;;0.40;;
34497;SDS011;20744;50.938;7.286;2022-12-29T05:25:58;1.25;;;0.50;;
34497;SDS011;20744;50.938;7.286;2022-12-29T05:28:25;0.93;;;0.50;;
34497;SDS011;20744;50.938;7.286;2022-12-29T05:30:53;1.10;;;0.35;;
34497;SDS011;20744;50.938;7.286;2022-12-29T05:33:20;1.65;;;0.30;;
34497;SDS011;20744;50.938;7.286;2022-12-29T05:35:47;1.67;;;0.40;;
34497;SDS011;20744;50.938;7.286;2022-12-29T05:38:14;0.57;;;0.40;;
34497;SDS011;20744;50.938;7.286;2022-12-29T05:40:41;0.77;;;0.38;;
34497;SDS011;20744;50.938;7.286;2022-12-29T05:43:09;0.77;;;0.30;;
34497;SDS011;20744;50.938;7.286;2022-12-29T05:45:36;1.25;;;0.40;;
34497;SDS011;20744;50.938;7.286;2022-12-29T05:48:04;4.60;;;0.50;;
34497;SDS011;20744;50.938;7.286;2022-12-29T05:50:31;0.30;;;0.30;;
34497;SDS011;20744;50.938;7.286;2022-12-29T05:52:58;2.75;;;0.45;;
34497;SDS011;20744;50.938;7.286;2022-12-29T05:55:25;1.30;;;0.70;;
34497;SDS011;20744;50.938;7.286;2022-12-29T05:57:52;1.58;;;0.60;;
34497;SDS011;20744;50.938;7.286;2022-12-29T06:00:19;2.22;;;0.45;;
34497;SDS011;20744;50.938;7.286;2022-12-29T06:02:46;0.60;;;0.40;;
34497;SDS011;20744;50.938;7.286;2022-12-29T06:05:15;0.93;;;0.50;;
34497;SDS011;20744;50.938;7.286;2022-12-29T06:07:42;0.80;;;0.30;;
34497;SDS011;20744;50.938;7.286;2022-12-29T06:10:10;1.15;;;0.50;;
34497;SDS011;20744;50.938;7.286;2022-12-29T06:12:37;1.90;;;0.40;;
34497;SDS011;20744;50.938;7.286;2022-12-29T06:15:05;1.30;;;0.43;;
34497;SDS011;20744;50.938;7.286;2022-12-29T06:17:32;0.70;;;0.38;;
34497;SDS011;20744;50.938;7.286;2022-12-29T06:20:00;1.27;;;0.40;;
34497;SDS011;20744;50.938;7.286;2022-12-29T06:22:28;0.57;;;0.30;;
34497;SDS011;20744;50.938;7.286;2022-12-29T06:24:55;0.55;;;0.30;;
34497;SDS011;20744;50.938;7.286;2022-12-29T06:27:23;2.15;;;0.47;;
34497;SDS011;20744;50.938;7.286;2022-12-29T06:29:50;0.60;;;0.32;;
34497;SDS011;20744;50.938;7.286;2022-12-29T06:32:17;1.20;;;0.30;;
34497;SDS011;20744;50.938;7.286;2022-12-29T06:34:44;1.20;;;0.40;;
34497;SDS011;20744;50.938;7.286;2022-12-29T06:37:11;0.30;;;0.20;;
34497;SDS011;20744;50.938;7.286;2022-12-29T06:39:41;1.48;;;0.30;;
34497;SDS011;20744;50.938;7.286;2022-12-29T06:42:09;6.35;;;0.43;;
34497;SDS011;20744;50.938;7.286;2022-12-29T06:44:36;3.35;;;0.50;;
34497;SDS011;20744;50.938;7.286;2022-12-29T06:47:03;0.88;;;0.40;;
34497;SDS011;20744;50.938;7.286;2022-12-29T06:49:30;0.73;;;0.50;;
34497;SDS011;20744;50.938;7.286;2022-12-29T06:51:57;0.80;;;0.40;;
34497;SDS011;20744;50.938;7.286;2022-12-29T06:54:25;3.10;;;0.47;;
34497;SDS011;20744;50.938;7.286;2022-12-29T06:56:54;1.35;;;0.43;;
34497;SDS011;20744;50.938;7.286;2022-12-29T06:59:21;2.47;;;0.50;;
34497;SDS011;20744;50.938;7.286;2022-12-29T07:01:48;4.22;;;0.50;;
34497;SDS011;20744;50.938;7.286;2022-12-29T07:04:15;2.90;;;0.50;;
34497;SDS011;20744;50.938;7.286;2022-12-29T07:06:42;1.02;;;0.50;;
34497;SDS011;20744;50.938;7.286;2022-12-29T07:09:10;2.35;;;0.45;;
34497;SDS011;20744;50.938;7.286;2022-12-29T07:11:37;1.52;;;0.50;;
34497;SDS011;20744;50.938;7.286;2022-12-29T07:14:06;1.15;;;0.50;;
34497;SDS011;20744;50.938;7.286;2022-12-29T07:16:33;2.50;;;0.70;;
34497;SDS011;20744;50.938;7.286;2022-12-29T07:19:00;2.03;;;0.40;;
34497;SDS011;20744;50.938;7.286;2022-12-29T07:21:27;0.88;;;0.52;;
34497;SDS011;20744;50.938;7.286;2022-12-29T07:23:54;1.52;;;0.40;;
34497;SDS011;20744;50.938;7.286;2022-12-29T07:26:22;2.38;;;0.50;;
34497;SDS011;20744;50.938;7.286;2022-12-29T07:28:49;1.40;;;0.40;;
34497;SDS011;20744;50.938;7.286;2022-12-29T07:31:18;1.10;;;0.28;;
34497;SDS011;20744;50.938;7.286;2022-12-29T07:33:47;4.43;;;0.40;;
34497;SDS011;20744;50.938;7.286;2022-12-29T07:36:15;1.60;;;0.30;;
34497;SDS011;20744;50.938;7.286;2022-12-29T07:38:42;0.90;;;0.30;;
34497;SDS011;20744;50.938;7.286;2022-12-29T07:41:09;0.85;;;0.30;;
34497;SDS011;20744;50.938;7.286;2022-12-29T07:43:36;2.15;;;0.40;;
34497;SDS011;20744;50.938;7.286;2022-12-29T07:46:03;4.22;;;0.52;;
34497;SDS011;20744;50.938;7.286;2022-12-29T07:48:31;1.67;;;0.40;;
34497;SDS011;20744;50.938;7.286;2022-12-29T07:51:00;1.40;;;0.50;;
34497;SDS011;20744;50.938;7.286;2022-12-29T07:53:27;4.05;;;0.40;;
34497;SDS011;20744;50.938;7.286;2022-12-29T07:55:55;2.20;;;0.50;;
34497;SDS011;20744;50.938;7.286;2022-12-29T07:58:22;1.33;;;0.40;;
34497;SDS011;20744;50.938;7.286;2022-12-29T08:00:52;1.10;;;0.40;;
34497;SDS011;20744;50.938;7.286;2022-12-29T08:03:19;2.30;;;0.60;;
34497;SDS011;20744;50.938;7.286;2022-12-29T08:05:48;2.90;;;0.65;;
34497;SDS011;20744;50.938;7.286;2022-12-29T08:08:15;2.45;;;1.10;;
34497;SDS011;20744;50.938;7.286;2022-12-29T08:10:42;2.55;;;0.70;;
34497;SDS011;20744;50.938;7.286;2022-12-29T08:13:09;1.60;;;0.60;;
34497;SDS011;20744;50.938;7.286;2022-12-29T08:15:37;1.90;;;1.00;;
34497;SDS011;20744;50.938;7.286;2022-12-29T08:18:04;2.50;;;0.70;;
34497;SDS011;20744;50.938;7.286;2022-12-29T08:20:31;1.80;;;0.55;;
34497;SDS011;20744;50.938;7.286;2022-12-29T08:22:59;2.03;;;0.35;;
34497;SDS011;20744;50.938;7.286;2022-12-29T08:25:26;2.15;;;0.30;;
34497;SDS011;20744;50.938;7.286;2022-12-29T08:27:53;1.70;;;0.57;;
34497;SDS011;20744;50.938;7.286;2022-12-29T08:30:20;6.82;;;1.55;;
34497;SDS011;20744;50.938;7.286;2022-12-29T08:32:47;9.65;;;2.25;;
34497;SDS011;20744;50.938;7.286;2022-12-29T08:35:14;3.50;;;1.35;;
34497;SDS011;20744;50.938;7.286;2022-12-29T08:37:41;3.65;;;1.00;;
34497;SDS011;20744;50.938;7.286;2022-12-29T08:40:10;6.47;;;0.95;;
34497;SDS011;20744;50.938;7.286;2022-12-29T08:42:38;3.17;;;0.70;;
34497;SDS011;20744;50.938;7.286;2022-12-29T08:45:06;2.90;;;0.50;;
34497;SDS011;20744;50.938;7.286;2022-12-29T08:47:33;2.63;;;0.90;;
34497;SDS011;20744;50.938;7.286;2022-12-29T08:50:00;2.45;;;0.50;;
34497;SDS011;20744;50.938;7.286;2022-12-29T08:52:27;2.25;;;0.60;;
34497;SDS011;20744;50.938;7.286;2022-12-29T08:54:54;3.20;;;0.50;;
34497;SDS011;20744;50.938;7.286;2022-12-29T08:57:22;2.58;;;0.80;;
34497;SDS011;20744;50.938;7.286;2022-12-29T08:59:49;4.72;;;0.70;;
34497;SDS011;20744;50.938;7.286;2022-12-29T09:02:16;7.90;;;0.77;;
34497;SDS011;20744;50.938;7.286;2022-12-29T09:04:43;4.05;;;0.65;;
34497;SDS011;20744;50.938;7.286;2022-12-29T09:07:10;2.58;;;0.60;;
34497;SDS011;20744;50.938;7.286;2022-12-29T09:09:37;2.97;;;0.70;;
34497;SDS011;20744;50.938;7.286;2022-12-29T09:12:04;2.92;;;0.60;;
34497;SDS011;20744;50.938;7.286;2022-12-29T09:14:32;4.88;;;0.60;;
34497;SDS011;20744;50.938;7.286;2022-12-29T09:16:59;2.83;;;0.80;;
34497;SDS011;20744;50.938;7.286;2022-12-29T09:19:44;4.18;;;0.82;;
34497;SDS011;20744;50.938;7.286;2022-12-29T09:22:10;3.85;;;0.82;;
34497;SDS011;20744;50.938;7.286;2022-12-29T09:24:37;4.07;;;0.90;;
34497;SDS011;20744;50.938;7.286;2022-12-29T09:27:04;3.20;;;0.80;;
34497;SDS011;20744;50.938;7.286;2022-12-29T09:29:32;5.82;;;1.00;;
34497;SDS011;20744;50.938;7.286;2022-12-29T09:31:59;2.03;;;0.40;;
34497;SDS011;20744;50.938;7.286;2022-12-29T09:34:27;3.28;;;0.52;;
34497;SDS011;20744;50.938;7.286;2022-12-29T09:36:53;9.05;;;0.55;;
34497;SDS011;20744;50.938;7.286;2022-12-29T09:39:21;2.42;;;0.80;;
34497;SDS011;20744;50.938;7.286;2022-12-29T09:41:49;3.67;;;0.75;;
34497;SDS011;20744;50.938;7.286;2022-12-29T09:44:26;4.00;;;1.25;;
34497;SDS011;20744;50.938;7.286;2022-12-29T09:47:05;1.80;;;0.68;;
34497;SDS011;20744;50.938;7.286;2022-12-29T09:49:38;3.63;;;0.70;;
34497;SDS011;20744;50.938;7.286;2022-12-29T09:52:12;7.43;;;1.10;;
34497;SDS011;20744;50.938;7.286;2022-12-29T09:54:43;2.95;;;0.80;;
34497;SDS011;20744;50.938;7.286;2022-12-29T09:57:18;4.78;;;0.95;;
34497;SDS011;20744;50.938;7.286;2022-12-29T09:59:48;3.95;;;0.90;;
34497;SDS011;20744;50.938;7.286;2022-12-29T10:02:31;3.70;;;0.88;;
34497;SDS011;20744;50.938;7.286;2022-12-29T10:05:03;8.20;;;0.75;;
34497;SDS011;20744;50.938;7.286;2022-12-29T10:07:40;4.57;;;0.75;;
34497;SDS011;20744;50.938;7.286;2022-12-29T10:10:19;4.78;;;1.10;;
34497;SDS011;20744;50.938;7.286;2022-12-29T10:12:56;5.80;;;1.27;;
34497;SDS011;20744;50.938;7.286;2022-12-29T10:15:43;9.30;;;1.45;;
34497;SDS011;20744;50.938;7.286;2022-12-29T10:18:26;6.32;;;1.30;;
34497;SDS011;20744;50.938;7.286;2022-12-29T10:21:07;5.07;;;0.73;;
34497;SDS011;20744;50.938;7.286;2022-12-29T10:23:42;5.97;;;1.00;;
34497;SDS011;20744;50.938;7.286;2022-12-29T10:26:12;7.53;;;0.90;;
34497;SDS011;20744;50.938;7.286;2022-12-29T10:28:43;8.70;;;1.77;;
34497;SDS011;20744;50.938;7.286;2022-12-29T10:31:16;8.73;;;1.35;;
34497;SDS011;20744;50.938;7.286;2022-12-29T10:33:48;5.82;;;1.05;;
34497;SDS011;20744;50.938;7.286;2022-12-29T10:36:18;4.72;;;0.90;;
34497;SDS011;20744;50.938;7.286;2022-12-29T10:38:51;6.53;;;1.13;;
34497;SDS011;20744;50.938;7.286;2022-12-29T10:41:28;6.07;;;1.00;;
34497;SDS011;20744;50.938;7.286;2022-12-29T10:44:03;6.25;;;1.55;;
34497;SDS011;20744;50.938;7.286;2022-12-29T10:46:32;6.07;;;1.30;;
34497;SDS011;20744;50.938;7.286;2022-12-29T10:49:03;7.35;;;1.50;;
34497;SDS011;20744;50.938;7.286;2022-12-29T10:51:32;9.82;;;1.40;;
34497;SDS011;20744;50.938;7.286;2022-12-29T10:54:03;6.93;;;1.20;;
34497;SDS011;20744;50.938;7.286;2022-12-29T10:56:33;6.30;;;1.10;;
34497;SDS011;20744;50.938;7.286;2022-12-29T10:59:04;4.57;;;0.75;;
34497;SDS011;20744;50.938;7.286;2022-12-29T11:01:37;4.23;;;0.90;;
34497;SDS011;20744;50.938;7.286;2022-12-29T11:04:15;8.27;;;1.33;;
34497;SDS011;20744;50.938;7.286;2022-12-29T11:06:56;4.82;;;0.82;;
34497;SDS011;20744;50.938;7.286;2022-12-29T11:09:24;10.45;;;1.67;;
34497;SDS011;20744;50.938;7.286;2022-12-29T11:11:54;6.47;;;1.25;;
34497;SDS011;20744;50.938;7.286;2022-12-29T11:14:25;6.93;;;0.98;;
34497;SDS011;20744;50.938;7.286;2022-12-29T11:16:57;7.10;;;1.05;;
34497;SDS011;20744;50.938;7.286;2022-12-29T11:19:27;9.05;;;1.27;;
34497;SDS011;20744;50.938;7.286;2022-12-29T11:22:00;3.58;;;1.02;;
34497;SDS011;20744;50.938;7.286;2022-12-29T11:24:43;6.35;;;1.30;;
34497;SDS011;20744;50.938;7.286;2022-12-29T11:27:14;3.10;;;0.80;;
34497;SDS011;20744;50.938;7.286;2022-12-29T11:29:43;7.05;;;1.33;;
34497;SDS011;20744;50.938;7.286;2022-12-29T11:32:11;7.07;;;1.08;;
34497;SDS011;20744;50.938;7.286;2022-12-29T11:34:45;7.70;;;1.10;;
34497;SDS011;20744;50.938;7.286;2022-12-29T11:37:13;4.97;;;0.98;;
34497;SDS011;20744;50.938;7.286;2022-12-29T11:39:44;4.60;;;1.20;;
34497;SDS011;20744;50.938;7.286;2022-12-29T11:42:18;6.57;;;1.10;;
34497;SDS011;20744;50.938;7.286;2022-12-29T11:44:49;5.15;;;0.90;;
34497;SDS011;20744;50.938;7.286;2022-12-29T11:47:25;5.43;;;1.17;;
34497;SDS011;20744;50.938;7.286;2022-12-29T11:49:57;4.65;;;1.10;;
34497;SDS011;20744;50.938;7.286;2022-12-29T11:52:27;4.28;;;1.02;;
34497;SDS011;20744;50.938;7.286;2022-12-29T11:54:58;4.10;;;0.93;;
34497;SDS011;20744;50.938;7.286;2022-12-29T11:57:27;4.57;;;0.95;;
34497;SDS011;20744;50.938;7.286;2022-12-29T11:59:58;8.15;;;1.70;;
34497;SDS011;20744;50.938;7.286;2022-12-29T12:05:28;11.45;;;1.23;;
34497;SDS011;20744;50.938;7.286;2022-12-29T12:08:09;5.03;;;1.02;;
34497;SDS011;20744;50.938;7.286;2022-12-29T12:10:42;4.40;;;1.10;;
34497;SDS011;20744;50.938;7.286;2022-12-29T12:13:17;8.80;;;1.30;;
34497;SDS011;20744;50.938;7.286;2022-12-29T12:18:18;6.50;;;1.10;;
34497;SDS011;20744;50.938;7.286;2022-12-29T12:20:58;7.22;;;0.90;;
34497;SDS011;20744;50.938;7.286;2022-12-29T12:23:35;6.10;;;1.30;;
34497;SDS011;20744;50.938;7.286;2022-12-29T12:26:09;8.40;;;1.38;;
34497;SDS011;20744;50.938;7.286;2022-12-29T12:28:40;4.68;;;1.20;;
34497;SDS011;20744;50.938;7.286;2022-12-29T12:31:16;5.38;;;1.10;;
34497;SDS011;20744;50.938;7.286;2022-12-29T12:33:50;4.25;;;1.10;;
34497;SDS011;20744;50.938;7.286;2022-12-29T12:36:32;4.97;;;1.00;;
34497;SDS011;20744;50.938;7.286;2022-12-29T12:39:22;7.10;;;0.90;;
34497;SDS011;20744;50.938;7.286;2022-12-29T12:41:56;7.00;;;1.40;;
34497;SDS011;20744;50.938;7.286;2022-12-29T12:44:35;4.93;;;0.90;;
34497;SDS011;20744;50.938;7.286;2022-12-29T12:47:15;3.42;;;0.80;;
34497;SDS011;20744;50.938;7.286;2022-12-29T12:52:44;5.85;;;1.05;;
34497;SDS011;20744;50.938;7.286;2022-12-29T12:55:44;4.15;;;0.93;;
34497;SDS011;20744;50.938;7.286;2022-12-29T12:58:21;4.95;;;1.00;;
34497;SDS011;20744;50.938;7.286;2022-12-29T13:01:00;4.95;;;1.17;;
34497;SDS011;20744;50.938;7.286;2022-12-29T13:03:43;4.85;;;0.93;;
34497;SDS011;20744;50.938;7.286;2022-12-29T13:06:18;8.48;;;1.20;;
34497;SDS011;20744;50.938;7.286;2022-12-29T13:09:02;5.65;;;1.27;;
34497;SDS011;20744;50.938;7.286;2022-12-29T13:14:30;4.30;;;1.05;;
34497;SDS011;20744;50.938;7.286;2022-12-29T13:17:06;6.68;;;0.93;;
34497;SDS011;20744;50.938;7.286;2022-12-29T13:19:39;6.28;;;1.13;;
34497;SDS011;20744;50.938;7.286;2022-12-29T13:22:10;6.13;;;1.42;;
34497;SDS011;20744;50.938;7.286;2022-12-29T13:24:50;6.47;;;1.35;;
34497;SDS011;20744;50.938;7.286;2022-12-29T13:27:25;6.53;;;0.98;;
34497;SDS011;20744;50.938;7.286;2022-12-29T13:30:00;7.43;;;1.38;;
34497;SDS011;20744;50.938;7.286;2022-12-29T13:32:35;9.68;;;2.00;;
34497;SDS011;20744;50.938;7.286;2022-12-29T13:35:26;4.07;;;0.80;;
34497;SDS011;20744;50.938;7.286;2022-12-29T13:38:04;4.95;;;1.05;;
34497;SDS011;20744;50.938;7.286;2022-12-29T13:40:40;6.97;;;1.10;;
34497;SDS011;20744;50.938;7.286;2022-12-29T13:43:11;4.13;;;0.80;;
34497;SDS011;20744;50.938;7.286;2022-12-29T13:45:39;8.35;;;1.23;;
34497;SDS011;20744;50.938;7.286;2022-12-29T13:48:10;5.53;;;0.85;;
34497;SDS011;20744;50.938;7.286;2022-12-29T13:50:42;5.95;;;1.17;;
34497;SDS011;20744;50.938;7.286;2022-12-29T13:53:15;6.47;;;1.13;;
34497;SDS011;20744;50.938;7.286;2022-12-29T13:55:53;6.55;;;1.20;;
34497;SDS011;20744;50.938;7.286;2022-12-29T13:58:26;7.75;;;1.45;;
34497;SDS011;20744;50.938;7.286;2022-12-29T14:00:58;6.72;;;1.08;;
34497;SDS011;20744;50.938;7.286;2022-12-29T14:03:49;5.15;;;1.13;;
34497;SDS011;20744;50.938;7.286;2022-12-29T14:06:22;9.02;;;1.30;;
34497;SDS011;20744;50.938;7.286;2022-12-29T14:08:51;5.03;;;0.82;;
34497;SDS011;20744;50.938;7.286;2022-12-29T14:11:22;7.47;;;1.10;;
34497;SDS011;20744;50.938;7.286;2022-12-29T14:13:54;6.72;;;1.15;;
34497;SDS011;20744;50.938;7.286;2022-12-29T14:16:29;6.97;;;1.35;;
34497;SDS011;20744;50.938;7.286;2022-12-29T14:19:05;3.35;;;0.75;;
34497;SDS011;20744;50.938;7.286;2022-12-29T14:21:39;7.05;;;1.60;;
34497;SDS011;20744;50.938;7.286;2022-12-29T14:30:07;5.45;;;1.15;;
34497;SDS011;20744;50.938;7.286;2022-12-29T14:33:13;7.45;;;1.30;;
34497;SDS011;20744;50.938;7.286;2022-12-29T14:35:42;7.13;;;1.38;;
34497;SDS011;20744;50.938;7.286;2022-12-29T14:38:14;3.85;;;1.20;;
34497;SDS011;20744;50.938;7.286;2022-12-29T14:40:43;7.65;;;1.20;;
34497;SDS011;20744;50.938;7.286;2022-12-29T14:43:12;8.13;;;1.00;;
34497;SDS011;20744;50.938;7.286;2022-12-29T14:45:48;6.20;;;0.95;;
34497;SDS011;20744;50.938;7.286;2022-12-29T14:48:27;5.93;;;1.10;;
34497;SDS011;20744;50.938;7.286;2022-12-29T14:50:59;3.70;;;0.70;;
34497;SDS011;20744;50.938;7.286;2022-12-29T14:53:43;5.07;;;0.75;;
34497;SDS011;20744;50.938;7.286;2022-12-29T14:56:11;7.78;;;1.33;;
34497;SDS011;20744;50.938;7.286;2022-12-29T14:58:43;7.13;;;1.20;;
34497;SDS011;20744;50.938;7.286;2022-12-29T15:01:19;5.95;;;1.27;;
34497;SDS011;20744;50.938;7.286;2022-12-29T15:04:03;5.63;;;1.77;;
34497;SDS011;20744;50.938;7.286;2022-12-29T15:06:39;7.70;;;1.92;;
34497;SDS011;20744;50.938;7.286;2022-12-29T15:09:10;9.30;;;1.60;;
34497;SDS011;20744;50.938;7.286;2022-12-29T15:11:45;6.93;;;1.50;;
34497;SDS011;20744;50.938;7.286;2022-12-29T15:14:26;6.13;;;1.38;;
34497;SDS011;20744;50.938;7.286;2022-12-29T15:16:57;5.70;;;1.35;;
34497;SDS011;20744;50.938;7.286;2022-12-29T15:19:24;7.03;;;1.60;;
34497;SDS011;20744;50.938;7.286;2022-12-29T15:21:52;6.93;;;1.02;;
34497;SDS011;20744;50.938;7.286;2022-12-29T15:24:20;5.82;;;1.25;;
34497;SDS011;20744;50.938;7.286;2022-12-29T15:26:49;6.00;;;1.70;;
34497;SDS011;20744;50.938;7.286;2022-12-29T15:29:31;10.57;;;1.52;;
34497;SDS011;20744;50.938;7.286;2022-12-29T15:32:14;5.88;;;1.80;;
34497;SDS011;20744;50.938;7.286;2022-12-29T15:34:47;7.33;;;1.70;;
34497;SDS011;20744;50.938;7.286;2022-12-29T15:37:17;10.77;;;1.88;;